Mesa Vista, California
Current Conditions -  °F | °C
As of 11:53 PM on Friday 28 Nov 2014 (Local Time) from KTVL Reporting Station
Broken Clouds Broken Clouds  
Wind Chill: 42°   Ceiling: 10000
Heat Index: 47°   Visibility: 10mi
Dew Point: 12°   Wind: 10mph
Humidity: 24%   Direction: 220°SW
Pressure: 29.89"   Gusts: 28mph
Location:  38.6924°N, 119.835°W
Report Text: KTVL 290753Z AUTO 22009G24KT 10SM BKN100 BKN120 08/M11 A2989 RMK AO2 PK WND 20030/0656 SLP077 T00831111 401440078
Loading
Personal Weather Stations






























Interactive Weather Map New forecast layout! Learn more

10-Day Weather Forecast

Advertisements
Track Severe Weather on mobile